Time;durP1;ratioP1;P1;durP2;ratioP2;P2;SDS_P1;SDS_P2;PMS_P1;PMS_P2;Temp;Humidity;BMP_temperature;BMP_pressure;BME280_temperature;BME280_humidity;BME280_pressure;Samples;Min_cycle;Max_cycle;Signal;HPM_P1;HPM_P2
2022/11/01 00:03:00;;;;;;;;;;;15.40;99.90;;;;;;12523804;28;19929;-85
2022/11/01 00:09:02;;;;;;;;;;;15.50;99.90;;;;;;12516876;28;19940;-84
2022/11/01 00:15:04;;;;;;;;;;;15.50;99.90;;;;;;12527055;28;19924;-84
2022/11/01 00:21:06;;;;;;;;;;;15.50;99.90;;;;;;12518725;28;19975;-85
2022/11/01 00:27:08;;;;;;;;;;;15.50;99.90;;;;;;12534546;28;19929;-85
2022/11/01 00:33:09;;;;;;;;;;;15.30;99.90;;;;;;12539062;28;19982;-86
2022/11/01 00:39:12;;;;;;;;;;;15.20;99.90;;;;;;12541979;28;19952;-84
2022/11/01 00:45:14;;;;;;;;;;;15.30;99.90;;;;;;12544940;28;19929;-84
2022/11/01 00:51:15;;;;;;;;;;;15.30;99.90;;;;;;12532818;28;19943;-84
2022/11/01 00:57:17;;;;;;;;;;;15.40;99.90;;;;;;12542870;28;19925;-85
2022/11/01 01:03:19;;;;;;;;;;;15.40;99.90;;;;;;12530178;28;20369;-85
2022/11/01 01:09:21;;;;;;;;;;;15.30;99.90;;;;;;12532675;28;19932;-85
2022/11/01 01:15:23;;;;;;;;;;;15.20;99.90;;;;;;12535374;28;19932;-85
2022/11/01 01:21:24;;;;;;;;;;;15.20;99.90;;;;;;12536273;28;19924;-84
2022/11/01 01:27:26;;;;;;;;;;;15.20;99.90;;;;;;12521589;28;19928;-85
2022/11/01 01:33:28;;;;;;;;;;;15.10;99.90;;;;;;12529226;28;19974;-85
2022/11/01 01:39:29;;;;;;;;;;;15.10;99.90;;;;;;12525794;28;19935;-85
2022/11/01 01:45:33;;;;;;;;;;;15.10;99.90;;;;;;12526619;28;19979;-85
2022/11/01 01:51:35;;;;;;;;;;;15.10;99.90;;;;;;12534112;28;20380;-84
2022/11/01 01:57:37;;;;;;;;;;;15.20;99.90;;;;;;12541142;28;19932;-84
2022/11/01 02:03:39;;;;;;;;;;;15.20;99.90;;;;;;12532869;28;19932;-84
2022/11/01 02:09:42;;;;;;;;;;;15.20;99.90;;;;;;12538187;28;19925;-85
2022/11/01 02:16:02;;;;;;;;;;;15.30;99.90;;;;;;12536438;28;20304;-85
2022/11/01 02:22:16;;;;;;;;;;;15.20;99.90;;;;;;12526033;28;19936;-84
2022/11/01 02:28:24;;;;;;;;;;;15.20;99.90;;;;;;12532805;28;19925;-85
2022/11/01 02:34:49;;;;;;;;;;;15.20;99.90;;;;;;12528341;28;19931;-84
2022/11/01 02:40:58;;;;;;;;;;;15.10;99.90;;;;;;12515015;28;19928;-85
2022/11/01 02:47:01;;;;;;;;;;;15.20;99.90;;;;;;12529389;28;19929;-84
2022/11/01 02:53:03;;;;;;;;;;;15.30;99.90;;;;;;12531769;28;19933;-84
2022/11/01 02:59:08;;;;;;;;;;;15.50;99.90;;;;;;12535401;28;19928;-85
2022/11/01 03:05:13;;;;;;;;;;;15.50;99.90;;;;;;12522834;28;19936;-85
2022/11/01 03:11:16;;;;;;;;;;;15.50;99.90;;;;;;12528997;28;20347;-85
2022/11/01 03:17:31;;;;;;;;;;;15.40;99.90;;;;;;12532607;28;19928;-85
2022/11/01 03:23:40;;;;;;;;;;;15.30;99.90;;;;;;12524623;28;19987;-85
2022/11/01 03:29:44;;;;;;;;;;;15.30;99.90;;;;;;12534277;28;19925;-83
2022/11/01 03:35:48;;;;;;;;;;;15.20;99.90;;;;;;12519961;28;20392;-84
2022/11/01 03:41:52;;;;;;;;;;;15.10;99.90;;;;;;12529524;28;19925;-84
2022/11/01 03:47:54;;;;;;;;;;;15.10;99.90;;;;;;12525436;28;19933;-84
2022/11/01 03:53:56;;;;;;;;;;;15.00;99.90;;;;;;12544756;28;19924;-84
2022/11/01 03:59:57;;;;;;;;;;;15.00;99.90;;;;;;12531906;28;19932;-85
2022/11/01 04:05:59;;;;;;;;;;;14.90;99.90;;;;;;12535001;28;19924;-84
2022/11/01 04:12:01;;;;;;;;;;;15.00;99.90;;;;;;12533561;28;20372;-84
2022/11/01 04:24:30;;;;;;;;;;;15.10;99.90;;;;;;12523571;28;19976;-84
2022/11/01 04:30:32;;;;;;;;;;;15.10;99.90;;;;;;12521457;28;19936;-83
2022/11/01 04:36:35;;;;;;;;;;;15.20;99.90;;;;;;12541214;28;19932;-84
2022/11/01 04:42:37;;;;;;;;;;;15.20;99.90;;;;;;12534810;28;19933;-84
2022/11/01 04:48:39;;;;;;;;;;;15.20;99.90;;;;;;12531224;28;20001;-84
2022/11/01 04:54:41;;;;;;;;;;;15.20;99.90;;;;;;12522898;28;19925;-84
2022/11/01 05:00:42;;;;;;;;;;;15.10;99.90;;;;;;12532758;28;19932;-84
2022/11/01 05:06:44;;;;;;;;;;;15.20;99.90;;;;;;12527862;28;19956;-84
2022/11/01 05:12:46;;;;;;;;;;;15.20;99.90;;;;;;12527283;28;19929;-84
2022/11/01 05:18:48;;;;;;;;;;;15.20;99.90;;;;;;12539330;28;19932;-84
2022/11/01 05:24:49;;;;;;;;;;;15.20;99.90;;;;;;12537897;28;19952;-84
2022/11/01 05:30:51;;;;;;;;;;;15.30;99.90;;;;;;12540538;28;19933;-84
2022/11/01 05:36:52;;;;;;;;;;;15.40;99.90;;;;;;12536316;28;19928;-84
2022/11/01 05:42:54;;;;;;;;;;;15.40;99.90;;;;;;12522563;28;19937;-84
2022/11/01 05:48:56;;;;;;;;;;;15.40;99.90;;;;;;12532501;28;19925;-84
2022/11/01 05:54:57;;;;;;;;;;;15.40;99.90;;;;;;12534029;28;19925;-84
2022/11/01 06:01:00;;;;;;;;;;;15.30;99.90;;;;;;12539505;28;19925;-83
2022/11/01 06:07:02;;;;;;;;;;;15.20;99.90;;;;;;12532604;28;19947;-84
2022/11/01 06:13:04;;;;;;;;;;;15.10;99.90;;;;;;12532755;28;19948;-84
2022/11/01 06:19:07;;;;;;;;;;;15.00;99.90;;;;;;12524640;28;19932;-84
2022/11/01 06:25:09;;;;;;;;;;;15.10;99.90;;;;;;12532314;28;20300;-85
2022/11/01 06:31:11;;;;;;;;;;;14.90;99.90;;;;;;12527383;28;19931;-84
2022/11/01 06:37:13;;;;;;;;;;;14.90;99.90;;;;;;12531337;28;19933;-85
2022/11/01 06:43:15;;;;;;;;;;;15.00;99.90;;;;;;12532647;28;19932;-84
2022/11/01 06:49:16;;;;;;;;;;;15.20;99.90;;;;;;12526152;28;19944;-84
2022/11/01 06:55:19;;;;;;;;;;;15.20;99.90;;;;;;12530648;28;19924;-84
2022/11/01 07:01:23;;;;;;;;;;;15.30;99.90;;;;;;12529405;28;19988;-85
2022/11/01 07:07:25;;;;;;;;;;;15.50;99.90;;;;;;12537340;28;20309;-85
2022/11/01 07:13:32;;;;;;;;;;;15.50;99.90;;;;;;12527192;28;19932;-85
2022/11/01 07:19:34;;;;;;;;;;;15.60;99.90;;;;;;12522424;28;20388;-85
2022/11/01 07:25:36;;;;;;;;;;;15.70;99.90;;;;;;12527419;28;20292;-85
2022/11/01 07:31:37;;;;;;;;;;;15.80;99.90;;;;;;12535188;28;19925;-85
2022/11/01 07:37:39;;;;;;;;;;;15.90;99.90;;;;;;12527299;28;19925;-85
2022/11/01 07:43:41;;;;;;;;;;;15.90;99.90;;;;;;12531245;28;19929;-85
2022/11/01 07:49:43;;;;;;;;;;;16.00;99.90;;;;;;12524522;28;19936;-85
2022/11/01 07:55:44;;;;;;;;;;;16.10;99.90;;;;;;12524756;28;20387;-85
2022/11/01 08:01:46;;;;;;;;;;;16.20;99.90;;;;;;12524165;28;19952;-85
2022/11/01 08:07:48;;;;;;;;;;;16.20;99.90;;;;;;12522270;28;19924;-85
2022/11/01 08:13:49;;;;;;;;;;;16.20;99.90;;;;;;12524408;28;20381;-85
2022/11/01 08:19:51;;;;;;;;;;;16.20;99.90;;;;;;12515156;28;19939;-85
2022/11/01 08:25:53;;;;;;;;;;;16.30;99.90;;;;;;12524232;28;19929;-85
2022/11/01 08:31:54;;;;;;;;;;;16.40;99.90;;;;;;12532905;28;20291;-85
2022/11/01 08:37:57;;;;;;;;;;;16.40;99.90;;;;;;12526768;28;19931;-85
2022/11/01 08:43:59;;;;;;;;;;;16.40;99.90;;;;;;12524867;28;19925;-86
2022/11/01 08:50:01;;;;;;;;;;;16.30;99.90;;;;;;12527167;28;19932;-85
2022/11/01 08:56:06;;;;;;;;;;;16.30;99.90;;;;;;12537534;28;19929;-85
2022/11/01 09:02:10;;;;;;;;;;;16.20;99.90;;;;;;12535912;28;21278;-85
2022/11/01 09:08:12;;;;;;;;;;;16.00;99.90;;;;;;12530664;28;19948;-84
2022/11/01 09:14:13;;;;;;;;;;;15.90;99.90;;;;;;12533863;28;20307;-84
2022/11/01 09:20:15;;;;;;;;;;;15.80;99.90;;;;;;12520769;28;19996;-84
2022/11/01 09:26:17;;;;;;;;;;;15.90;99.90;;;;;;12534313;28;20308;-84
2022/11/01 09:32:20;;;;;;;;;;;16.00;99.90;;;;;;12531922;28;20316;-84
2022/11/01 09:38:21;;;;;;;;;;;16.10;99.90;;;;;;12542585;28;19952;-85
2022/11/01 09:44:29;;;;;;;;;;;16.20;99.90;;;;;;12520857;28;19929;-85
2022/11/01 09:50:33;;;;;;;;;;;16.50;99.90;;;;;;12532274;28;20292;-85
2022/11/01 09:56:40;;;;;;;;;;;16.60;99.90;;;;;;12523814;28;20403;-85
2022/11/01 10:02:44;;;;;;;;;;;16.70;99.90;;;;;;12547001;28;20411;-84
2022/11/01 10:09:08;;;;;;;;;;;16.90;99.90;;;;;;12526930;28;20407;-86
2022/11/01 10:15:18;;;;;;;;;;;16.80;99.90;;;;;;12528301;28;19931;-85
2022/11/01 10:21:20;;;;;;;;;;;16.70;99.90;;;;;;12527691;28;19925;-84
2022/11/01 10:27:45;;;;;;;;;;;16.80;99.90;;;;;;12536901;28;19929;-84
2022/11/01 10:33:50;;;;;;;;;;;16.80;99.90;;;;;;12526890;28;19928;-85
2022/11/01 10:39:54;;;;;;;;;;;16.90;99.90;;;;;;12535743;28;19925;-84
2022/11/01 10:46:03;;;;;;;;;;;16.90;99.90;;;;;;12529432;28;20074;-84
2022/11/01 10:52:07;;;;;;;;;;;17.10;99.90;;;;;;12529153;28;19924;-85
2022/11/01 10:58:22;;;;;;;;;;;17.10;99.90;;;;;;12531666;28;19931;-84
2022/11/01 11:04:25;;;;;;;;;;;16.90;99.90;;;;;;12529109;28;19936;-86
2022/11/01 11:10:27;;;;;;;;;;;17.20;99.90;;;;;;12524528;28;19929;-85
2022/11/01 11:16:41;;;;;;;;;;;17.10;99.90;;;;;;12528906;28;20270;-84
2022/11/01 11:22:43;;;;;;;;;;;17.00;99.90;;;;;;12528173;28;19925;-85
2022/11/01 11:28:46;;;;;;;;;;;17.10;99.90;;;;;;12526594;28;19925;-85
2022/11/01 11:34:54;;;;;;;;;;;17.20;99.90;;;;;;12519912;28;19932;-85
2022/11/01 11:40:56;;;;;;;;;;;17.40;99.90;;;;;;12518759;28;19925;-85
2022/11/01 11:46:58;;;;;;;;;;;17.50;99.90;;;;;;12526333;28;19924;-85
2022/11/01 11:53:01;;;;;;;;;;;17.60;99.90;;;;;;12559833;28;19973;-85
2022/11/01 11:59:21;;;;;;;;;;;17.80;99.90;;;;;;12577143;28;19909;-86
2022/11/01 12:05:25;;;;;;;;;;;17.80;99.90;;;;;;12583486;28;19976;-85
2022/11/01 12:11:36;;;;;;;;;;;17.70;99.90;;;;;;12580401;28;19933;-85
2022/11/01 12:17:45;;;;;;;;;;;17.50;99.90;;;;;;12572645;28;20284;-85
2022/11/01 12:23:49;;;;;;;;;;;17.50;99.90;;;;;;12553516;28;19925;-85
2022/11/01 12:29:59;;;;;;;;;;;17.60;99.90;;;;;;12537899;28;19929;-85
2022/11/01 12:36:01;;;;;;;;;;;17.50;99.90;;;;;;12545818;28;19933;-84
2022/11/01 12:42:03;;;;;;;;;;;17.70;99.90;;;;;;12538984;28;19925;-85
2022/11/01 12:48:08;;;;;;;;;;;17.50;99.90;;;;;;12541062;28;19933;-85
2022/11/01 12:54:20;;;;;;;;;;;17.60;99.90;;;;;;12534344;28;20457;-85
2022/11/01 13:00:25;;;;;;;;;;;17.50;99.90;;;;;;12531605;28;19928;-85
2022/11/01 13:06:46;;;;;;;;;;;17.20;99.90;;;;;;12538577;28;19932;-85
2022/11/01 13:12:50;;;;;;;;;;;17.40;99.90;;;;;;12539881;28;19925;-85
2022/11/01 13:18:59;;;;;;;;;;;17.50;99.90;;;;;;12526570;28;19925;-85
2022/11/01 13:25:20;;;;;;;;;;;17.30;99.90;;;;;;12546175;28;20292;-85
2022/11/01 13:31:27;;;;;;;;;;;17.10;99.90;;;;;;12546376;28;20070;-86
2022/11/01 13:37:35;;;;;;;;;;;17.10;99.90;;;;;;12519357;28;21855;-85
2022/11/01 13:43:40;;;;;;;;;;;16.90;99.90;;;;;;12526861;28;19939;-84
2022/11/01 13:50:11;;;;;;;;;;;16.60;99.90;;;;;;12527613;28;19925;-85
2022/11/01 13:56:20;;;;;;;;;;;16.60;99.90;;;;;;12510664;28;20465;-85
2022/11/01 14:02:22;;;;;;;;;;;16.50;99.90;;;;;;12527718;28;19925;-85
2022/11/01 14:08:25;;;;;;;;;;;16.40;99.90;;;;;;12533153;28;19940;-85
2022/11/01 14:14:30;;;;;;;;;;;16.40;99.90;;;;;;12527399;28;19941;-85
2022/11/01 14:20:41;;;;;;;;;;;16.30;99.90;;;;;;12519358;28;19929;-85
2022/11/01 14:26:46;;;;;;;;;;;16.30;99.90;;;;;;12524816;28;19924;-85
2022/11/01 14:32:53;;;;;;;;;;;16.20;99.90;;;;;;12529931;28;20410;-85
2022/11/01 14:38:59;;;;;;;;;;;16.10;99.90;;;;;;12522787;28;19928;-85
2022/11/01 14:45:04;;;;;;;;;;;16.00;99.90;;;;;;12530051;28;20365;-84
2022/11/01 14:51:06;;;;;;;;;;;15.90;99.90;;;;;;12522225;28;19933;-84
2022/11/01 14:57:19;;;;;;;;;;;15.90;99.90;;;;;;12528421;28;20380;-85
2022/11/01 15:03:20;;;;;;;;;;;15.80;99.90;;;;;;12528190;28;19929;-85
2022/11/01 15:09:23;;;;;;;;;;;15.70;99.90;;;;;;12521615;28;19933;-85
2022/11/01 15:15:27;;;;;;;;;;;15.60;99.90;;;;;;12524551;28;19932;-85
2022/11/01 15:21:31;;;;;;;;;;;15.50;99.90;;;;;;12526467;28;19933;-84
2022/11/01 15:27:42;;;;;;;;;;;15.40;99.90;;;;;;12518872;28;20292;-85
2022/11/01 15:33:55;;;;;;;;;;;15.30;99.90;;;;;;12525126;28;20312;-85
2022/11/01 15:39:57;;;;;;;;;;;15.20;99.90;;;;;;12539258;28;19924;-85
2022/11/01 15:46:00;;;;;;;;;;;14.90;99.90;;;;;;12530181;28;19925;-85
2022/11/01 15:52:04;;;;;;;;;;;14.90;99.90;;;;;;12520956;28;19932;-84
2022/11/01 15:58:16;;;;;;;;;;;14.70;99.90;;;;;;12525685;28;19936;-85
2022/11/01 16:04:18;;;;;;;;;;;14.60;99.90;;;;;;12529079;28;19932;-84
2022/11/01 16:10:28;;;;;;;;;;;14.50;99.90;;;;;;12528513;28;19939;-85
2022/11/01 16:16:49;;;;;;;;;;;14.50;99.90;;;;;;12530109;28;19932;-85
2022/11/01 16:22:50;;;;;;;;;;;14.30;99.90;;;;;;12525669;28;19937;-85
2022/11/01 16:28:53;;;;;;;;;;;14.20;99.90;;;;;;12529458;28;20364;-84
2022/11/01 16:34:55;;;;;;;;;;;14.10;99.90;;;;;;12530745;28;19944;-83
2022/11/01 16:41:14;;;;;;;;;;;14.10;99.90;;;;;;12522280;28;19925;-83
2022/11/01 16:47:18;;;;;;;;;;;14.00;99.90;;;;;;12532404;28;19933;-84
2022/11/01 16:53:21;;;;;;;;;;;14.10;99.90;;;;;;12537875;28;19936;-83
2022/11/01 16:59:32;;;;;;;;;;;14.00;99.90;;;;;;12529551;28;19932;-83
2022/11/01 17:05:34;;;;;;;;;;;13.90;99.90;;;;;;12527245;28;19974;-83
2022/11/01 17:11:35;;;;;;;;;;;13.80;99.90;;;;;;12525468;28;19929;-84
2022/11/01 17:17:38;;;;;;;;;;;13.90;99.90;;;;;;12529648;28;19936;-83
2022/11/01 17:23:40;;;;;;;;;;;13.70;99.90;;;;;;12526976;28;19932;-83
2022/11/01 17:29:41;;;;;;;;;;;13.70;99.90;;;;;;12533255;28;19932;-84
2022/11/01 17:35:43;;;;;;;;;;;13.50;99.90;;;;;;12546049;28;20530;-83
2022/11/01 17:41:45;;;;;;;;;;;13.50;99.90;;;;;;12536066;28;20358;-83
2022/11/01 17:47:47;;;;;;;;;;;13.50;99.90;;;;;;12532892;28;19972;-83
2022/11/01 17:53:52;;;;;;;;;;;13.40;99.90;;;;;;12538683;28;20384;-83
2022/11/01 17:59:55;;;;;;;;;;;13.30;99.90;;;;;;12525434;28;19940;-83
2022/11/01 18:05:57;;;;;;;;;;;13.20;99.90;;;;;;12527431;28;19924;-83
2022/11/01 18:12:05;;;;;;;;;;;13.10;99.90;;;;;;12528147;28;20300;-83
2022/11/01 18:18:25;;;;;;;;;;;13.10;99.90;;;;;;12528167;28;19931;-83
2022/11/01 18:24:39;;;;;;;;;;;13.00;99.90;;;;;;12545427;28;19940;-83
2022/11/01 18:30:43;;;;;;;;;;;13.00;99.90;;;;;;12535807;28;19924;-83
2022/11/01 18:36:51;;;;;;;;;;;13.00;99.90;;;;;;12542914;28;19936;-83
2022/11/01 18:42:53;;;;;;;;;;;13.10;99.90;;;;;;12524524;28;19932;-83
2022/11/01 18:48:59;;;;;;;;;;;13.30;99.90;;;;;;12537991;28;19929;-83
2022/11/01 18:55:10;;;;;;;;;;;13.30;99.90;;;;;;12533320;28;20399;-83
2022/11/01 19:01:19;;;;;;;;;;;13.30;99.90;;;;;;12546122;28;19925;-83
2022/11/01 19:07:22;;;;;;;;;;;13.30;99.90;;;;;;12531549;28;20273;-83
2022/11/01 19:13:30;;;;;;;;;;;13.20;99.90;;;;;;12537345;28;20311;-83
2022/11/01 19:19:33;;;;;;;;;;;13.00;99.90;;;;;;12533397;28;19929;-83
2022/11/01 19:25:35;;;;;;;;;;;13.00;99.90;;;;;;12535229;28;19931;-83
2022/11/01 19:31:37;;;;;;;;;;;12.90;99.90;;;;;;12533131;28;19928;-83
2022/11/01 19:37:40;;;;;;;;;;;12.80;99.90;;;;;;12536593;28;20300;-83
2022/11/01 19:43:42;;;;;;;;;;;13.00;99.90;;;;;;12539790;28;20019;-82
2022/11/01 19:49:44;;;;;;;;;;;13.10;99.90;;;;;;12524107;28;19925;-83
2022/11/01 19:55:49;;;;;;;;;;;13.20;99.90;;;;;;12529834;28;19929;-82
2022/11/01 20:01:51;;;;;;;;;;;13.10;99.90;;;;;;12537732;28;19929;-82
2022/11/01 20:08:05;;;;;;;;;;;13.00;99.90;;;;;;12525219;28;19925;-84
2022/11/01 20:14:07;;;;;;;;;;;13.00;99.90;;;;;;12519582;28;19925;-83
2022/11/01 20:20:08;;;;;;;;;;;12.90;99.90;;;;;;12525751;28;20308;-82
2022/11/01 20:26:11;;;;;;;;;;;12.90;99.90;;;;;;12525305;28;20266;-82
2022/11/01 20:32:12;;;;;;;;;;;12.90;99.90;;;;;;12521055;28;19941;-82
2022/11/01 20:38:14;;;;;;;;;;;12.80;99.90;;;;;;12526556;28;19928;-82
2022/11/01 20:44:16;;;;;;;;;;;12.70;99.90;;;;;;12530013;28;19932;-82
2022/11/01 20:50:17;;;;;;;;;;;12.70;99.90;;;;;;12539024;28;19929;-82
2022/11/01 20:56:19;;;;;;;;;;;12.60;99.90;;;;;;12539525;28;20284;-82
2022/11/01 21:02:21;;;;;;;;;;;12.50;99.90;;;;;;12522779;28;19925;-82
2022/11/01 21:08:26;;;;;;;;;;;12.40;99.90;;;;;;12547669;28;19929;-82
2022/11/01 21:14:35;;;;;;;;;;;12.30;99.90;;;;;;12539997;28;19925;-82
2022/11/01 21:20:38;;;;;;;;;;;12.40;99.90;;;;;;12535137;28;19929;-82
2022/11/01 21:26:41;;;;;;;;;;;12.40;99.90;;;;;;12538986;28;19925;-82
2022/11/01 21:32:44;;;;;;;;;;;12.30;99.90;;;;;;12533531;28;19925;-82
2022/11/01 21:38:51;;;;;;;;;;;12.20;99.90;;;;;;12528355;28;19933;-82
2022/11/01 21:44:54;;;;;;;;;;;12.20;99.90;;;;;;12542036;28;19928;-82
2022/11/01 21:50:55;;;;;;;;;;;12.20;99.90;;;;;;12524779;28;19933;-82
2022/11/01 21:56:57;;;;;;;;;;;12.20;99.90;;;;;;12539910;28;19955;-82
2022/11/01 22:02:59;;;;;;;;;;;12.10;99.90;;;;;;12536537;28;20376;-83
2022/11/01 22:09:01;;;;;;;;;;;12.00;99.90;;;;;;12538187;28;20292;-82
2022/11/01 22:15:02;;;;;;;;;;;12.10;99.90;;;;;;12530326;28;19932;-82
2022/11/01 22:21:04;;;;;;;;;;;12.00;99.90;;;;;;12537365;28;19925;-82
2022/11/01 22:27:06;;;;;;;;;;;11.90;99.90;;;;;;12528790;28;20300;-82
2022/11/01 22:33:09;;;;;;;;;;;12.00;99.90;;;;;;12530662;28;19926;-82
2022/11/01 22:39:17;;;;;;;;;;;11.90;99.90;;;;;;12526611;28;19925;-82
2022/11/01 22:45:18;;;;;;;;;;;11.80;99.90;;;;;;12539839;28;19925;-82
2022/11/01 22:51:39;;;;;;;;;;;11.70;99.90;;;;;;12533384;28;20356;-82
2022/11/01 22:57:46;;;;;;;;;;;11.80;99.90;;;;;;12529387;28;19925;-82
2022/11/01 23:03:49;;;;;;;;;;;11.80;99.90;;;;;;12527275;28;19929;-82
2022/11/01 23:09:51;;;;;;;;;;;11.80;99.90;;;;;;12517268;28;19929;-82
2022/11/01 23:15:55;;;;;;;;;;;11.80;99.90;;;;;;12529906;28;19928;-83
2022/11/01 23:21:57;;;;;;;;;;;11.90;99.90;;;;;;12528770;28;19928;-83
2022/11/01 23:27:58;;;;;;;;;;;11.90;99.90;;;;;;12523647;28;19936;-82
2022/11/01 23:34:00;;;;;;;;;;;11.90;99.90;;;;;;12525533;22;1807303;-83
2022/11/01 23:40:03;;;;;;;;;;;11.80;99.90;;;;;;12525003;28;19962;-82
2022/11/01 23:46:08;;;;;;;;;;;11.80;99.90;;;;;;12543122;28;19991;-82
2022/11/01 23:52:26;;;;;;;;;;;11.90;99.90;;;;;;12514815;28;19939;-82
2022/11/01 23:58:29;;;;;;;;;;;11.90;99.90;;;;;;12530391;28;19925;-83
